createdAt,value
2022-10-11T00:01:28.500Z,11.82
2022-10-11T00:06:31.859Z,11.78
2022-10-11T00:11:35.068Z,11.74
2022-10-11T00:16:41.246Z,11.72
2022-10-11T00:21:44.351Z,11.71
2022-10-11T00:26:47.564Z,11.64
2022-10-11T00:31:50.870Z,11.63
2022-10-11T00:36:54.181Z,11.62
2022-10-11T00:41:57.493Z,11.57
2022-10-11T00:47:05.412Z,11.51
2022-10-11T00:52:31.685Z,11.43
2022-10-11T00:57:39.726Z,11.34
2022-10-11T01:02:43.707Z,11.25
2022-10-11T01:07:48.350Z,11.20
2022-10-11T01:13:28.935Z,11.13
2022-10-11T01:18:44.434Z,11.03
2022-10-11T01:24:08.722Z,10.97
2022-10-11T01:29:18.307Z,10.93
2022-10-11T01:34:41.589Z,10.92
2022-10-11T01:40:08.841Z,10.93
2022-10-11T01:45:16.667Z,10.90
2022-10-11T01:50:40.554Z,10.86
2022-10-11T01:55:54.412Z,10.78
2022-10-11T02:01:56.451Z,10.69
2022-10-11T02:07:19.163Z,10.59
2022-10-11T02:12:44.950Z,10.47
2022-10-11T02:17:56.709Z,10.38
2022-10-11T02:23:10.978Z,10.26
2022-10-11T02:28:21.983Z,10.15
2022-10-11T02:33:33.984Z,10.05
2022-10-11T02:38:50.914Z,9.96
2022-10-11T02:44:06.411Z,9.86
2022-10-11T02:49:10.750Z,9.78
2022-10-11T02:54:13.851Z,9.72
2022-10-11T02:59:17.265Z,9.65
2022-10-11T03:04:20.472Z,9.60
2022-10-11T03:09:23.684Z,9.56
2022-10-11T03:14:27.299Z,9.57
2022-10-11T03:19:30.508Z,9.62
2022-10-11T03:24:33.616Z,9.68
2022-10-11T03:29:37.025Z,9.77
2022-10-11T03:34:40.233Z,9.87
2022-10-11T03:39:43.442Z,10.00
2022-10-11T03:44:49.723Z,10.13
2022-10-11T03:49:53.443Z,10.24
2022-10-11T03:54:56.961Z,10.34
2022-10-11T04:00:00.167Z,10.42
2022-10-11T04:05:06.141Z,10.52
2022-10-11T04:10:10.066Z,10.59
2022-10-11T04:15:13.787Z,10.62
2022-10-11T04:20:16.893Z,10.63
2022-10-11T04:25:20.307Z,10.64
2022-10-11T04:30:23.924Z,10.68
2022-10-11T04:35:27.132Z,10.68
2022-10-11T04:40:30.239Z,10.72
2022-10-11T04:45:33.655Z,10.73
2022-10-11T04:50:37.476Z,10.76
2022-10-11T04:55:40.685Z,10.79
2022-10-11T05:00:43.890Z,10.84
2022-10-11T05:05:47.102Z,10.86
2022-10-11T05:10:57.788Z,10.89
2022-10-11T05:16:01.582Z,10.90
2022-10-11T05:21:26.011Z,10.90
2022-10-11T05:26:29.422Z,10.93
2022-10-11T05:31:32.939Z,10.93
2022-10-11T05:36:36.057Z,10.94
2022-10-11T05:41:39.260Z,10.96
2022-10-11T05:46:42.572Z,10.97
2022-10-11T05:51:45.774Z,10.99
2022-10-11T05:56:48.981Z,11.02
2022-10-11T06:01:52.354Z,11.05
2022-10-11T06:06:55.602Z,11.09
2022-10-11T06:11:58.811Z,11.14
2022-10-11T06:17:02.121Z,11.18
2022-10-11T06:22:05.329Z,11.15
2022-10-11T06:27:08.742Z,11.08
2022-10-11T06:32:13.595Z,11.00
2022-10-11T06:37:16.802Z,10.98
2022-10-11T06:42:20.011Z,11.15
2022-10-11T06:47:23.111Z,11.34
2022-10-11T06:52:26.320Z,11.36
2022-10-11T06:57:30.246Z,11.37
2022-10-11T07:02:33.454Z,11.40
2022-10-11T07:07:36.665Z,11.44
2022-10-11T07:12:44.519Z,11.54
2022-10-11T07:17:47.688Z,11.75
2022-10-11T07:22:50.896Z,11.97
2022-10-11T07:27:54.113Z,12.28
2022-10-11T07:32:57.210Z,12.63
2022-10-11T07:38:00.419Z,12.88
2022-10-11T07:43:03.626Z,12.90
2022-10-11T07:48:07.141Z,12.79
2022-10-11T07:53:10.248Z,12.73
2022-10-11T07:58:13.557Z,12.78
2022-10-11T08:03:16.766Z,12.86
2022-10-11T08:08:19.974Z,13.02
2022-10-11T08:13:41.517Z,13.39
2022-10-11T08:18:45.438Z,13.58
2022-10-11T08:23:48.647Z,13.71
2022-10-11T08:28:51.919Z,13.74
2022-10-11T08:33:55.170Z,13.94
2022-10-11T08:38:58.991Z,13.95
2022-10-11T08:44:08.648Z,13.88
2022-10-11T08:49:14.979Z,13.85
2022-10-11T08:54:21.631Z,13.82
2022-10-11T08:59:45.000Z,13.69
2022-10-11T09:04:52.388Z,13.68
2022-10-11T09:10:14.152Z,13.69
2022-10-11T09:15:40.608Z,13.87
2022-10-11T09:20:46.679Z,13.95
2022-10-11T09:25:58.384Z,14.02
2022-10-11T09:31:01.593Z,14.34
2022-10-11T09:36:19.759Z,14.54
2022-10-11T09:41:41.700Z,14.70
2022-10-11T09:46:46.682Z,14.73
2022-10-11T09:51:57.131Z,14.74
2022-10-11T09:57:00.335Z,14.90
2022-10-11T10:02:13.351Z,15.10
2022-10-11T10:07:16.687Z,15.32
2022-10-11T10:12:24.211Z,15.26
2022-10-11T10:17:27.711Z,15.16
2022-10-11T10:22:34.673Z,15.19
2022-10-11T10:27:38.224Z,15.19
2022-10-11T10:32:55.254Z,15.34
2022-10-11T10:38:12.495Z,15.56
2022-10-11T10:43:19.215Z,15.61
2022-10-11T10:54:54.482Z,15.57
2022-10-11T11:00:00.460Z,15.53
2022-10-11T11:05:24.968Z,15.36
2022-10-11T11:10:45.273Z,15.55
2022-10-11T11:16:05.590Z,15.62
2022-10-11T11:21:24.458Z,15.55
2022-10-11T11:26:44.419Z,15.79
2022-10-11T11:32:19.722Z,16.27
2022-10-11T11:37:45.354Z,16.42
2022-10-11T11:42:51.737Z,16.43
2022-10-11T11:48:06.983Z,16.44
2022-10-11T11:53:17.722Z,16.44
2022-10-11T11:58:53.616Z,16.42
2022-10-11T12:04:03.553Z,16.35
2022-10-11T12:09:18.948Z,16.16
2022-10-11T12:14:22.573Z,16.09
2022-10-11T12:19:25.877Z,15.86
2022-10-11T12:25:16.241Z,15.71
2022-10-11T12:30:51.144Z,15.92
2022-10-11T12:36:01.394Z,16.03
2022-10-11T12:41:10.255Z,16.00
2022-10-11T12:46:41.011Z,16.14
2022-10-11T12:52:01.729Z,16.42
2022-10-11T12:57:22.963Z,16.48
2022-10-11T13:02:29.036Z,16.37
2022-10-11T13:07:34.906Z,16.20
2022-10-11T13:12:44.974Z,16.03
2022-10-11T13:17:54.534Z,15.73
2022-10-11T13:22:58.913Z,15.45
2022-10-11T13:28:02.282Z,15.16
2022-10-11T13:33:12.864Z,15.21
2022-10-11T13:38:34.919Z,15.37
2022-10-11T13:43:39.146Z,15.40
2022-10-11T13:48:42.355Z,15.39
2022-10-11T13:54:00.345Z,15.37
2022-10-11T13:59:04.742Z,15.51
2022-10-11T14:04:12.664Z,15.78
2022-10-11T14:09:28.490Z,15.98
2022-10-11T14:14:34.749Z,15.75
2022-10-11T14:19:38.420Z,15.64
2022-10-11T14:24:42.904Z,15.79
2022-10-11T14:30:00.491Z,15.81
2022-10-11T14:35:19.323Z,15.98
2022-10-11T14:40:25.598Z,15.96
2022-10-11T14:45:28.812Z,15.94
2022-10-11T14:50:48.203Z,16.62
2022-10-11T14:55:52.022Z,16.07
2022-10-11T15:00:55.027Z,16.91
2022-10-11T15:05:58.440Z,15.83
2022-10-11T15:11:01.649Z,15.01
2022-10-11T15:16:05.266Z,14.56
2022-10-11T15:21:14.517Z,14.27
2022-10-11T15:26:22.127Z,14.05
2022-10-11T15:31:25.335Z,13.90
2022-10-11T15:36:29.796Z,14.10
2022-10-11T15:41:32.981Z,14.66
2022-10-11T15:46:36.085Z,14.48
2022-10-11T15:51:39.395Z,14.08
2022-10-11T15:56:43.431Z,13.72
2022-10-11T16:01:47.293Z,13.44
2022-10-11T16:06:50.557Z,13.23
2022-10-11T16:11:53.773Z,13.07
2022-10-11T16:16:56.858Z,12.93
2022-10-11T16:21:59.978Z,12.79
2022-10-11T16:27:03.193Z,12.66
2022-10-11T16:32:06.701Z,12.51
2022-10-11T16:37:10.320Z,12.36
2022-10-11T16:42:13.528Z,12.17
2022-10-11T16:47:19.707Z,11.99
2022-10-11T16:52:23.021Z,11.79
2022-10-11T16:57:26.226Z,11.62
2022-10-11T17:02:32.740Z,11.47
2022-10-11T17:07:36.518Z,11.29
2022-10-11T17:12:40.047Z,11.07
2022-10-11T17:17:43.258Z,10.87
2022-10-11T17:22:46.572Z,10.71
2022-10-11T17:27:49.775Z,10.58
2022-10-11T17:32:53.119Z,10.46
2022-10-11T17:37:56.499Z,10.33
2022-10-11T17:42:59.708Z,10.26
2022-10-11T17:48:04.455Z,10.18
2022-10-11T17:53:07.660Z,10.10
2022-10-11T17:58:12.315Z,10.00
2022-10-11T18:03:15.511Z,9.88
2022-10-11T18:08:19.029Z,9.78
2022-10-11T18:13:22.235Z,9.69
2022-10-11T18:18:26.675Z,9.60
2022-10-11T18:23:29.880Z,9.52
2022-10-11T18:28:33.351Z,9.44
2022-10-11T18:33:37.630Z,9.36
2022-10-11T18:38:46.827Z,9.25
2022-10-11T18:43:52.666Z,9.12
2022-10-11T18:48:58.474Z,8.99
2022-10-11T18:54:02.809Z,8.91
2022-10-11T18:59:07.828Z,8.94
2022-10-11T19:04:13.491Z,9.08
2022-10-11T19:09:22.036Z,9.11
2022-10-11T19:14:28.850Z,9.09
2022-10-11T19:19:33.154Z,9.07
2022-10-11T19:24:36.336Z,9.01
2022-10-11T19:29:39.647Z,9.00
2022-10-11T19:34:42.855Z,8.94
2022-10-11T19:39:46.065Z,8.89
2022-10-11T19:44:49.168Z,8.85
2022-10-11T19:49:52.481Z,8.84
2022-10-11T19:54:55.690Z,8.78
2022-10-11T19:59:58.897Z,8.69
2022-10-11T20:05:02.209Z,8.61
2022-10-11T20:10:06.175Z,8.56
2022-10-11T20:15:10.059Z,8.45
2022-10-11T20:20:13.369Z,8.34
2022-10-11T20:25:16.782Z,8.20
2022-10-11T20:30:20.093Z,8.10
2022-10-11T20:35:23.300Z,7.95
2022-10-11T20:40:26.508Z,7.85
2022-10-11T20:45:29.615Z,7.75
2022-10-11T20:50:32.824Z,7.70
2022-10-11T20:55:36.029Z,7.71
2022-10-11T21:00:40.060Z,7.70
2022-10-11T21:05:43.369Z,7.67
2022-10-11T21:10:54.148Z,7.64
2022-10-11T21:16:08.424Z,7.62
2022-10-11T21:21:15.829Z,7.64
2022-10-11T21:26:19.346Z,7.68
2022-10-11T21:31:23.715Z,7.72
2022-10-11T21:36:27.195Z,7.76
2022-10-11T21:41:30.509Z,7.90
2022-10-11T21:47:04.779Z,7.99
2022-10-11T21:51:57.504Z,8.06
2022-10-11T21:57:00.713Z,8.07
2022-10-11T22:02:03.972Z,8.07
2022-10-11T22:07:07.336Z,8.11
2022-10-11T22:12:10.751Z,8.18
2022-10-11T22:17:14.126Z,8.20
2022-10-11T22:22:17.373Z,8.23
2022-10-11T22:27:20.579Z,8.29
2022-10-11T22:32:23.787Z,8.36
2022-10-11T22:37:26.994Z,8.44
2022-10-11T22:42:30.615Z,8.49
2022-10-11T22:47:34.003Z,8.54
2022-10-11T22:52:37.338Z,8.57
2022-10-11T22:57:40.547Z,8.61
2022-10-11T23:02:43.957Z,8.63
2022-10-11T23:07:55.358Z,8.66
2022-10-11T23:12:58.671Z,8.68
2022-10-11T23:18:01.983Z,8.71
2022-10-11T23:23:06.212Z,8.72
2022-10-11T23:28:09.481Z,8.69
2022-10-11T23:33:12.732Z,8.60
2022-10-11T23:38:16.145Z,8.54
2022-10-11T23:43:19.355Z,8.47
2022-10-11T23:48:22.563Z,8.42
2022-10-11T23:53:25.769Z,8.43
2022-10-11T23:58:28.980Z,8.45
